PRIVATE WETTERSTATION BILLIGHEIM-ALLFELD                       ZURCK
Wetterdaten: Samstag, 14.05.2022
Datum Zeit Temp. A. Temp. A. min Temp. A. max Feuchte A. Luftdruck Regen Wind Richtung Richtung Sonnenschein ET Solar Taupunkt Windchill Windben Empfang
14.05.2022 00:00 11,4 C 11,4 C 11,8 C 76 % 1019,4 hPa 0,0 l/m 0,0 km/h (0 Bft) N 0 0 min 0,025 mm 0 W/m 7,3 C 11,4 C 0,0 km/h (0 Bft) 100 %
14.05.2022 00:10 11,1 C 11,1 C 11,4 C 77 % 1019,4 hPa 0,0 l/m 0,0 km/h (0 Bft) N 0 0 min 0,000 mm 0 W/m 7,2 C 11,1 C 0,0 km/h (0 Bft) 99 %
14.05.2022 00:20 10,8 C 10,8 C 11,1 C 77 % 1019,5 hPa 0,0 l/m 0,0 km/h (0 Bft) N 0 0 min 0,000 mm 0 W/m 6,9 C 10,8 C 0,0 km/h (0 Bft) 100 %
14.05.2022 00:30 10,6 C 10,6 C 10,8 C 78 % 1019,7 hPa 0,0 l/m 0,0 km/h (0 Bft) N 0 0 min 0,000 mm 0 W/m 6,9 C 10,6 C 0,0 km/h (0 Bft) 100 %
14.05.2022 00:40 10,3 C 10,3 C 10,6 C 80 % 1019,7 hPa 0,0 l/m 0,0 km/h (0 Bft) N 0 0 min 0,000 mm 0 W/m 7,0 C 10,3 C 0,0 km/h (0 Bft) 100 %
14.05.2022 00:50 10,0 C 10,0 C 10,3 C 80 % 1019,7 hPa 0,0 l/m 0,0 km/h (0 Bft) N 0 0 min 0,000 mm 0 W/m 6,7 C 10,0 C 0,0 km/h (0 Bft) 100 %
14.05.2022 01:00 9,8 C 9,8 C 9,9 C 81 % 1019,8 hPa 0,0 l/m 0,0 km/h (0 Bft) N 0 0 min 0,025 mm 0 W/m 6,7 C 9,8 C 0,0 km/h (0 Bft) 100 %
14.05.2022 01:10 9,6 C 9,6 C 9,8 C 82 % 1019,7 hPa 0,0 l/m 0,0 km/h (0 Bft) N 0 0 min 0,000 mm 0 W/m 6,7 C 9,6 C 0,0 km/h (0 Bft) 100 %
14.05.2022 01:20 9,5 C 9,5 C 9,6 C 82 % 1019,7 hPa 0,0 l/m 0,0 km/h (0 Bft) N 0 0 min 0,000 mm 0 W/m 6,6 C 9,5 C 0,0 km/h (0 Bft) 100 %
14.05.2022 01:30 9,3 C 9,3 C 9,5 C 82 % 1019,8 hPa 0,0 l/m 0,0 km/h (0 Bft) N 0 0 min 0,000 mm 0 W/m 6,4 C 9,3 C 0,0 km/h (0 Bft) 100 %
14.05.2022 01:40 9,3 C 9,3 C 9,4 C 82 % 1019,7 hPa 0,0 l/m 0,0 km/h (0 Bft) N 0 0 min 0,000 mm 0 W/m 6,4 C 9,3 C 0,0 km/h (0 Bft) 100 %
14.05.2022 01:50 9,2 C 9,2 C 9,3 C 83 % 1019,7 hPa 0,0 l/m 0,0 km/h (0 Bft) N 0 0 min 0,000 mm 0 W/m 6,5 C 9,2 C 0,0 km/h (0 Bft) 100 %
14.05.2022 02:00 9,1 C 9,1 C 9,2 C 83 % 1019,6 hPa 0,0 l/m 0,0 km/h (0 Bft) N 0 0 min 0,000 mm 0 W/m 6,4 C 9,1 C 0,0 km/h (0 Bft) 100 %
14.05.2022 02:10 9,0 C 9,0 C 9,1 C 83 % 1019,6 hPa 0,0 l/m 0,0 km/h (0 Bft) N 0 0 min 0,000 mm 0 W/m 6,3 C 9,0 C 0,0 km/h (0 Bft) 100 %
14.05.2022 02:20 8,8 C 8,8 C 9,0 C 84 % 1019,6 hPa 0,0 l/m 0,0 km/h (0 Bft) N 0 0 min 0,000 mm 0 W/m 6,2 C 8,8 C 0,0 km/h (0 Bft) 100 %
14.05.2022 02:30 8,6 C 8,6 C 8,8 C 84 % 1019,6 hPa 0,0 l/m 0,0 km/h (0 Bft) N 0 0 min 0,000 mm 0 W/m 6,1 C 8,6 C 0,0 km/h (0 Bft) 100 %
14.05.2022 02:40 8,5 C 8,5 C 8,6 C 85 % 1019,7 hPa 0,0 l/m 0,0 km/h (0 Bft) N 0 0 min 0,000 mm 0 W/m 6,1 C 8,5 C 0,0 km/h (0 Bft) 100 %
14.05.2022 02:50 8,3 C 8,3 C 8,5 C 86 % 1019,7 hPa 0,0 l/m 0,0 km/h (0 Bft) N 0 0 min 0,000 mm 0 W/m 6,1 C 8,3 C 0,0 km/h (0 Bft) 100 %
14.05.2022 03:00 8,2 C 8,2 C 8,4 C 86 % 1019,7 hPa 0,0 l/m 0,0 km/h (0 Bft) N 0 0 min 0,000 mm 0 W/m 6,0 C 8,2 C 0,0 km/h (0 Bft) 100 %
14.05.2022 03:10 8,2 C 8,2 C 8,2 C 87 % 1019,6 hPa 0,0 l/m 0,0 km/h (0 Bft) N 0 0 min 0,000 mm 0 W/m 6,2 C 8,2 C 0,0 km/h (0 Bft) 100 %
14.05.2022 03:20 8,1 C 8,1 C 8,2 C 87 % 1019,6 hPa 0,0 l/m 0,0 km/h (0 Bft) N 0 0 min 0,000 mm 0 W/m 6,1 C 8,1 C 0,0 km/h (0 Bft) 100 %
14.05.2022 03:30 7,9 C 7,9 C 8,1 C 87 % 1019,5 hPa 0,0 l/m 0,0 km/h (0 Bft) N 0 0 min 0,000 mm 0 W/m 5,9 C 7,9 C 0,0 km/h (0 Bft) 100 %
14.05.2022 03:40 7,8 C 7,8 C 7,9 C 88 % 1019,6 hPa 0,0 l/m 0,0 km/h (0 Bft) N 0 0 min 0,000 mm 0 W/m 5,9 C 7,8 C 0,0 km/h (0 Bft) 100 %
14.05.2022 03:50 7,7 C 7,7 C 7,8 C 88 % 1019,6 hPa 0,0 l/m 0,0 km/h (0 Bft) N 0 0 min 0,000 mm 0 W/m 5,8 C 7,7 C 0,0 km/h (0 Bft) 100 %
14.05.2022 04:00 7,6 C 7,6 C 7,7 C 88 % 1019,6 hPa 0,0 l/m 0,0 km/h (0 Bft) N 0 0 min 0,000 mm 0 W/m 5,7 C 7,6 C 0,0 km/h (0 Bft) 100 %
14.05.2022 04:10 7,5 C 7,5 C 7,6 C 89 % 1019,5 hPa 0,0 l/m 0,0 km/h (0 Bft) N 0 0 min 0,000 mm 0 W/m 5,8 C 7,5 C 0,0 km/h (0 Bft) 89 %
14.05.2022 04:20 7,4 C 7,4 C 7,5 C 89 % 1019,4 hPa 0,0 l/m 0,0 km/h (0 Bft) N 0 0 min 0,000 mm 0 W/m 5,7 C 7,4 C 0,0 km/h (0 Bft) 100 %
14.05.2022 04:30 7,3 C 7,3 C 7,4 C 89 % 1019,5 hPa 0,0 l/m 0,0 km/h (0 Bft) N 0 0 min 0,000 mm 0 W/m 5,6 C 7,3 C 0,0 km/h (0 Bft) 100 %
14.05.2022 04:40 7,2 C 7,2 C 7,3 C 89 % 1019,5 hPa 0,0 l/m 0,0 km/h (0 Bft) N 0 0 min 0,000 mm 0 W/m 5,5 C 7,2 C 0,0 km/h (0 Bft) 100 %
14.05.2022 04:50 7,1 C 7,1 C 7,2 C 89 % 1019,5 hPa 0,0 l/m 0,0 km/h (0 Bft) N 0 0 min 0,000 mm 0 W/m 5,4 C 7,1 C 0,0 km/h (0 Bft) 100 %
14.05.2022 05:00 6,9 C 6,9 C 7,1 C 89 % 1019,6 hPa 0,0 l/m 0,0 km/h (0 Bft) N 0 0 min 0,000 mm 0 W/m 5,2 C 6,9 C 0,0 km/h (0 Bft) 100 %
14.05.2022 05:10 6,8 C 6,8 C 6,9 C 89 % 1019,5 hPa 0,0 l/m 0,0 km/h (0 Bft) N 0 0 min 0,000 mm 0 W/m 5,1 C 6,8 C 0,0 km/h (0 Bft) 100 %
14.05.2022 05:20 6,6 C 6,6 C 6,8 C 89 % 1019,7 hPa 0,0 l/m 0,0 km/h (0 Bft) N 0 0 min 0,000 mm 0 W/m 4,9 C 6,6 C 0,0 km/h (0 Bft) 100 %
14.05.2022 05:30 6,4 C 6,4 C 6,6 C 90 % 1019,7 hPa 0,0 l/m 0,0 km/h (0 Bft) N 0 0 min 0,000 mm 0 W/m 4,9 C 6,4 C 0,0 km/h (0 Bft) 100 %
14.05.2022 05:40 6,3 C 6,3 C 6,4 C 90 % 1019,7 hPa 0,0 l/m 0,0 km/h (0 Bft) N 0 0 min 0,000 mm 0 W/m 4,8 C 6,3 C 0,0 km/h (0 Bft) 99 %
14.05.2022 05:50 6,3 C 6,3 C 6,3 C 90 % 1019,8 hPa 0,0 l/m 0,0 km/h (0 Bft) N 0 0 min 0,000 mm 0 W/m 4,8 C 6,3 C 0,0 km/h (0 Bft) 98 %
14.05.2022 06:00 6,3 C 6,3 C 6,3 C 90 % 1019,8 hPa 0,0 l/m 0,0 km/h (0 Bft) N 0 0 min 0,000 mm 9 W/m 4,8 C 6,3 C 0,0 km/h (0 Bft) 97 %
14.05.2022 06:10 6,4 C 6,3 C 6,4 C 90 % 1019,8 hPa 0,0 l/m 0,0 km/h (0 Bft) N 0 0 min 0,000 mm 11 W/m 4,9 C 6,4 C 0,0 km/h (0 Bft) 98 %
14.05.2022 06:20 6,4 C 6,4 C 6,4 C 91 % 1019,8 hPa 0,0 l/m 0,0 km/h (0 Bft) N 0 0 min 0,000 mm 14 W/m 5,0 C 6,4 C 0,0 km/h (0 Bft) 86 %
14.05.2022 06:30 6,5 C 6,4 C 6,5 C 91 % 1019,8 hPa 0,0 l/m 0,0 km/h (0 Bft) N 0 0 min 0,000 mm 16 W/m 5,1 C 6,5 C 0,0 km/h (0 Bft) 98 %
14.05.2022 06:40 6,6 C 6,5 C 6,6 C 91 % 1019,9 hPa 0,0 l/m 0,0 km/h (0 Bft) N 0 0 min 0,000 mm 18 W/m 5,2 C 6,6 C 0,0 km/h (0 Bft) 98 %
14.05.2022 06:50 6,7 C 6,6 C 6,7 C 91 % 1020,0 hPa 0,0 l/m 0,0 km/h (0 Bft) N 0 0 min 0,000 mm 19 W/m 5,3 C 6,7 C 0,0 km/h (0 Bft) 97 %
14.05.2022 07:00 6,8 C 6,7 C 6,8 C 91 % 1020,0 hPa 0,0 l/m 0,0 km/h (0 Bft) N 0 0 min 0,000 mm 21 W/m 5,4 C 6,8 C 0,0 km/h (0 Bft) 98 %
14.05.2022 07:10 6,8 C 6,8 C 6,8 C 91 % 1020,1 hPa 0,0 l/m 0,0 km/h (0 Bft) N 0 0 min 0,000 mm 23 W/m 5,4 C 6,8 C 0,0 km/h (0 Bft) 97 %
14.05.2022 07:20 6,9 C 6,8 C 6,9 C 91 % 1020,2 hPa 0,0 l/m 0,0 km/h (0 Bft) N 0 0 min 0,000 mm 25 W/m 5,5 C 6,9 C 0,0 km/h (0 Bft) 98 %
14.05.2022 07:30 7,3 C 6,9 C 7,3 C 91 % 1020,2 hPa 0,0 l/m 0,0 km/h (0 Bft) N 0 0 min 0,000 mm 26 W/m 5,9 C 7,3 C 0,0 km/h (0 Bft) 97 %
14.05.2022 07:40 7,8 C 7,3 C 7,8 C 90 % 1020,3 hPa 0,0 l/m 0,0 km/h (0 Bft) NW 315 0 min 0,000 mm 28 W/m 6,3 C 7,8 C 1,6 km/h (1 Bft) 98 %
14.05.2022 07:50 8,9 C 7,8 C 8,9 C 91 % 1020,5 hPa 0,0 l/m 0,0 km/h (0 Bft) N 0 0 min 0,000 mm 32 W/m 7,5 C 8,9 C 0,0 km/h (0 Bft) 98 %
14.05.2022 08:00 9,8 C 8,9 C 9,8 C 89 % 1020,4 hPa 0,0 l/m 0,0 km/h (0 Bft) W-NW 292 0 min 0,025 mm 33 W/m 8,1 C 9,8 C 3,2 km/h (1 Bft) 97 %
14.05.2022 08:10 10,4 C 9,8 C 10,4 C 87 % 1020,5 hPa 0,0 l/m 0,0 km/h (0 Bft) N 0 0 min 0,000 mm 39 W/m 8,3 C 10,4 C 0,0 km/h (0 Bft) 98 %
14.05.2022 08:20 10,9 C 10,4 C 10,9 C 86 % 1020,6 hPa 0,0 l/m 0,0 km/h (0 Bft) N 0 0 min 0,000 mm 100 W/m 8,7 C 10,9 C 0,0 km/h (0 Bft) 96 %
14.05.2022 08:30 11,8 C 10,9 C 11,8 C 83 % 1020,6 hPa 0,0 l/m 0,0 km/h (0 Bft) SW 225 10 min 0,000 mm 394 W/m 9,0 C 11,8 C 6,4 km/h (2 Bft) 98 %
14.05.2022 08:40 12,7 C 11,8 C 12,7 C 81 % 1020,5 hPa 0,0 l/m 1,6 km/h (1 Bft) S 180 10 min 0,000 mm 431 W/m 9,5 C 12,7 C 6,4 km/h (2 Bft) 97 %
14.05.2022 08:50 13,6 C 12,8 C 13,6 C 78 % 1020,6 hPa 0,0 l/m 0,0 km/h (0 Bft) S 180 10 min 0,000 mm 461 W/m 9,8 C 13,6 C 3,2 km/h (1 Bft) 98 %
14.05.2022 09:00 14,3 C 13,6 C 14,3 C 74 % 1020,6 hPa 0,0 l/m 0,0 km/h (0 Bft) N 0 10 min 0,127 mm 489 W/m 9,7 C 14,3 C 0,0 km/h (0 Bft) 100 %
14.05.2022 09:10 15,1 C 14,3 C 15,1 C 72 % 1020,6 hPa 0,0 l/m 0,0 km/h (0 Bft) N 0 10 min 0,000 mm 522 W/m 10,1 C 15,1 C 0,0 km/h (0 Bft) 99 %
14.05.2022 09:20 15,8 C 15,1 C 15,8 C 71 % 1020,6 hPa 0,0 l/m 0,0 km/h (0 Bft) N 0 10 min 0,000 mm 552 W/m 10,6 C 15,8 C 0,0 km/h (0 Bft) 100 %
14.05.2022 09:30 16,2 C 15,8 C 16,2 C 67 % 1020,7 hPa 0,0 l/m 0,0 km/h (0 Bft) N 0 10 min 0,000 mm 580 W/m 10,1 C 16,2 C 0,0 km/h (0 Bft) 98 %
14.05.2022 09:40 16,4 C 16,2 C 16,4 C 66 % 1020,7 hPa 0,0 l/m 0,0 km/h (0 Bft) N 0 10 min 0,000 mm 603 W/m 10,0 C 16,4 C 0,0 km/h (0 Bft) 100 %
14.05.2022 09:50 16,7 C 16,4 C 16,7 C 65 % 1020,7 hPa 0,0 l/m 0,0 km/h (0 Bft) S-SW 202 10 min 0,000 mm 628 W/m 10,1 C 16,7 C 1,6 km/h (1 Bft) 100 %
14.05.2022 10:00 16,9 C 16,7 C 17,0 C 66 % 1020,7 hPa 0,0 l/m 0,0 km/h (0 Bft) S-SW 202 10 min 0,305 mm 654 W/m 10,5 C 16,9 C 1,6 km/h (1 Bft) 100 %
14.05.2022 10:10 17,3 C 16,9 C 17,3 C 64 % 1020,6 hPa 0,0 l/m 0,0 km/h (0 Bft) S-SW 202 10 min 0,000 mm 677 W/m 10,4 C 17,3 C 1,6 km/h (1 Bft) 99 %
14.05.2022 10:20 17,8 C 17,3 C 17,8 C 64 % 1020,7 hPa 0,0 l/m 0,0 km/h (0 Bft) S-SW 202 10 min 0,000 mm 703 W/m 10,9 C 17,8 C 1,6 km/h (1 Bft) 100 %
14.05.2022 10:30 18,3 C 17,8 C 18,3 C 59 % 1020,6 hPa 0,0 l/m 0,0 km/h (0 Bft) SW 225 10 min 0,000 mm 728 W/m 10,1 C 18,3 C 4,8 km/h (1 Bft) 100 %
14.05.2022 10:40 18,7 C 18,3 C 18,7 C 56 % 1020,6 hPa 0,0 l/m 1,6 km/h (1 Bft) W-NW 292 10 min 0,000 mm 747 W/m 9,7 C 18,7 C 8,0 km/h (2 Bft) 100 %
14.05.2022 10:50 18,9 C 18,7 C 18,9 C 57 % 1020,6 hPa 0,0 l/m 0,0 km/h (0 Bft) W-NW 292 10 min 0,000 mm 763 W/m 10,2 C 18,9 C 6,4 km/h (2 Bft) 100 %
14.05.2022 11:00 19,3 C 18,9 C 19,3 C 56 % 1020,5 hPa 0,0 l/m 0,0 km/h (0 Bft) W-NW 292 10 min 0,406 mm 782 W/m 10,3 C 19,3 C 1,6 km/h (1 Bft) 97 %
14.05.2022 11:10 19,4 C 19,2 C 19,4 C 56 % 1020,5 hPa 0,0 l/m 0,0 km/h (0 Bft) W-SW 247 10 min 0,000 mm 803 W/m 10,4 C 19,4 C 1,6 km/h (1 Bft) 97 %
14.05.2022 11:20 19,6 C 19,4 C 19,7 C 54 % 1020,6 hPa 0,0 l/m 0,0 km/h (0 Bft) SW 225 10 min 0,000 mm 821 W/m 10,0 C 19,6 C 6,4 km/h (2 Bft) 97 %
14.05.2022 11:30 19,7 C 19,5 C 19,7 C 58 % 1020,5 hPa 0,0 l/m 0,0 km/h (0 Bft) SW 225 10 min 0,000 mm 833 W/m 11,2 C 19,7 C 1,6 km/h (1 Bft) 98 %
14.05.2022 11:40 19,9 C 19,7 C 19,9 C 55 % 1020,4 hPa 0,0 l/m 0,0 km/h (0 Bft) W 270 10 min 0,000 mm 849 W/m 10,6 C 19,9 C 6,4 km/h (2 Bft) 97 %
14.05.2022 12:00 20,3 C 19,7 C 20,3 C 56 % 1020,4 hPa 0,0 l/m 0,8 km/h (0 Bft) S 190 20 min 0,459 mm 861 W/m 11,2 C 20,3 C 9,7 km/h (2 Bft) 100 %
14.05.2022 12:10 20,4 C 20,2 C 20,4 C 58 % 1020,3 hPa 0,0 l/m 0,1 km/h (0 Bft) S 188 10 min 0,000 mm 872 W/m 11,9 C 20,4 C 4,8 km/h (1 Bft) 100 %
14.05.2022 12:20 20,4 C 20,4 C 20,5 C 55 % 1020,2 hPa 0,0 l/m 1,2 km/h (1 Bft) SW 215 10 min 0,000 mm 879 W/m 11,1 C 20,4 C 14,5 km/h (3 Bft) 99 %
14.05.2022 12:30 20,5 C 20,4 C 20,5 C 54 % 1020,2 hPa 0,0 l/m 1,0 km/h (0 Bft) S-SW 195 10 min 0,000 mm 888 W/m 10,9 C 20,5 C 9,7 km/h (2 Bft) 100 %
14.05.2022 12:40 20,9 C 20,5 C 20,9 C 57 % 1019,9 hPa 0,0 l/m 0,2 km/h (0 Bft) SW 234 10 min 0,000 mm 893 W/m 12,1 C 20,9 C 4,8 km/h (1 Bft) 100 %
14.05.2022 12:50 21,1 C 20,9 C 21,1 C 55 % 1020,0 hPa 0,0 l/m 0,5 km/h (0 Bft) S-SW 200 10 min 0,000 mm 902 W/m 11,7 C 21,1 C 6,4 km/h (2 Bft) 100 %
14.05.2022 13:00 21,2 C 21,0 C 21,2 C 52 % 1019,9 hPa 0,0 l/m 0,3 km/h (0 Bft) W-SW 250 10 min 0,508 mm 905 W/m 10,9 C 21,2 C 8,0 km/h (2 Bft) 100 %
14.05.2022 13:10 21,6 C 21,2 C 21,7 C 50 % 1019,8 hPa 0,0 l/m 0,8 km/h (0 Bft) S-SW 198 10 min 0,000 mm 904 W/m 10,7 C 21,6 C 6,4 km/h (2 Bft) 100 %
14.05.2022 13:20 21,6 C 21,5 C 21,6 C 53 % 1019,8 hPa 0,0 l/m 1,0 km/h (0 Bft) S 186 10 min 0,000 mm 904 W/m 11,6 C 21,6 C 11,3 km/h (2 Bft) 100 %
14.05.2022 13:30 21,6 C 21,5 C 21,6 C 50 % 1019,9 hPa 0,0 l/m 0,5 km/h (0 Bft) S 180 10 min 0,000 mm 902 W/m 10,7 C 21,6 C 9,7 km/h (2 Bft) 100 %
14.05.2022 13:40 21,5 C 21,4 C 21,6 C 51 % 1019,7 hPa 0,0 l/m 0,3 km/h (0 Bft) SW 225 10 min 0,000 mm 896 W/m 10,9 C 21,5 C 8,0 km/h (2 Bft) 99 %
14.05.2022 13:50 21,7 C 21,4 C 21,7 C 49 % 1019,8 hPa 0,0 l/m 0,7 km/h (0 Bft) W 263 10 min 0,000 mm 895 W/m 10,5 C 21,7 C 8,0 km/h (2 Bft) 100 %
14.05.2022 14:00 22,3 C 21,7 C 22,3 C 49 % 1019,7 hPa 0,0 l/m 0,3 km/h (0 Bft) NW 304 10 min 0,533 mm 889 W/m 11,1 C 22,3 C 6,4 km/h (2 Bft) 100 %
14.05.2022 14:10 22,7 C 22,3 C 22,7 C 48 % 1019,7 hPa 0,0 l/m 0,3 km/h (0 Bft) NW 312 10 min 0,000 mm 881 W/m 11,1 C 22,7 C 6,4 km/h (2 Bft) 100 %
14.05.2022 14:20 23,0 C 22,7 C 23,0 C 52 % 1019,6 hPa 0,0 l/m 0,2 km/h (0 Bft) N-NW 331 10 min 0,000 mm 874 W/m 12,6 C 23,0 C 6,4 km/h (2 Bft) 100 %
14.05.2022 14:30 23,4 C 23,0 C 23,4 C 49 % 1019,4 hPa 0,0 l/m 0,8 km/h (0 Bft) W-NW 300 10 min 0,000 mm 860 W/m 12,1 C 23,4 C 8,0 km/h (2 Bft) 100 %
14.05.2022 14:40 23,4 C 23,4 C 23,6 C 46 % 1019,3 hPa 0,0 l/m 0,3 km/h (0 Bft) W-NW 298 10 min 0,000 mm 851 W/m 11,1 C 23,4 C 9,7 km/h (2 Bft) 100 %
14.05.2022 14:50 23,7 C 23,4 C 23,7 C 47 % 1019,3 hPa 0,0 l/m 4,0 km/h (1 Bft) NW 321 10 min 0,000 mm 846 W/m 11,7 C 23,7 C 16,1 km/h (3 Bft) 100 %
14.05.2022 15:00 24,1 C 23,7 C 24,1 C 44 % 1019,2 hPa 0,0 l/m 2,9 km/h (1 Bft) NW 323 10 min 0,533 mm 830 W/m 11,1 C 24,1 C 17,7 km/h (3 Bft) 100 %
14.05.2022 15:10 23,8 C 23,8 C 24,1 C 45 % 1019,0 hPa 0,0 l/m 1,8 km/h (1 Bft) S-SW 195 10 min 0,000 mm 814 W/m 11,1 C 23,8 C 11,3 km/h (2 Bft) 100 %
14.05.2022 15:20 23,6 C 23,6 C 23,8 C 43 % 1018,9 hPa 0,0 l/m 0,2 km/h (0 Bft) O-SO 119 10 min 0,000 mm 788 W/m 10,3 C 23,6 C 4,8 km/h (1 Bft) 100 %
14.05.2022 15:30 23,4 C 23,3 C 23,6 C 41 % 1018,8 hPa 0,0 l/m 0,4 km/h (0 Bft) S 191 10 min 0,000 mm 779 W/m 9,4 C 23,4 C 8,0 km/h (2 Bft) 100 %
14.05.2022 15:40 23,8 C 23,4 C 23,8 C 39 % 1018,7 hPa 0,0 l/m 2,4 km/h (1 Bft) W-SW 242 10 min 0,000 mm 779 W/m 9,0 C 23,8 C 16,1 km/h (3 Bft) 100 %
14.05.2022 15:50 24,0 C 23,8 C 24,0 C 38 % 1018,7 hPa 0,0 l/m 3,7 km/h (1 Bft) S-SW 192 10 min 0,000 mm 758 W/m 8,8 C 24,0 C 14,5 km/h (3 Bft) 100 %
14.05.2022 16:00 23,8 C 23,8 C 24,0 C 38 % 1018,6 hPa 0,0 l/m 3,3 km/h (1 Bft) S 184 10 min 0,508 mm 742 W/m 8,6 C 23,8 C 16,1 km/h (3 Bft) 100 %
14.05.2022 16:10 23,7 C 23,7 C 23,8 C 38 % 1018,5 hPa 0,0 l/m 2,0 km/h (1 Bft) S-SW 198 10 min 0,000 mm 694 W/m 8,5 C 23,7 C 14,5 km/h (3 Bft) 100 %
14.05.2022 16:20 23,6 C 23,6 C 23,7 C 39 % 1018,3 hPa 0,0 l/m 0,9 km/h (0 Bft) SW 214 10 min 0,000 mm 645 W/m 8,8 C 23,6 C 9,7 km/h (2 Bft) 100 %
14.05.2022 16:30 23,7 C 23,6 C 23,7 C 42 % 1018,2 hPa 0,0 l/m 0,7 km/h (0 Bft) S-SO 159 10 min 0,000 mm 691 W/m 10,0 C 23,7 C 9,7 km/h (2 Bft) 100 %
14.05.2022 16:40 23,4 C 23,4 C 23,7 C 38 % 1018,2 hPa 0,0 l/m 1,1 km/h (1 Bft) S-SW 198 10 min 0,000 mm 599 W/m 8,3 C 23,4 C 8,0 km/h (2 Bft) 99 %
14.05.2022 16:50 23,7 C 23,4 C 23,7 C 41 % 1018,0 hPa 0,0 l/m 1,3 km/h (1 Bft) W-SW 256 10 min 0,000 mm 608 W/m 9,7 C 23,7 C 8,0 km/h (2 Bft) 100 %
14.05.2022 17:00 24,0 C 23,7 C 24,0 C 40 % 1018,0 hPa 0,0 l/m 3,1 km/h (1 Bft) W-SW 257 10 min 0,407 mm 591 W/m 9,6 C 24,0 C 16,1 km/h (3 Bft) 100 %
14.05.2022 17:10 24,2 C 24,0 C 24,2 C 40 % 1018,0 hPa 0,0 l/m 0,8 km/h (0 Bft) W 259 10 min 0,000 mm 503 W/m 9,7 C 24,2 C 8,0 km/h (2 Bft) 100 %
14.05.2022 17:20 24,5 C 24,2 C 24,6 C 40 % 1018,0 hPa 0,0 l/m 0,0 km/h (0 Bft) S-SW 213 10 min 0,000 mm 555 W/m 10,0 C 24,5 C 3,2 km/h (1 Bft) 99 %
14.05.2022 17:30 24,4 C 24,3 C 24,5 C 41 % 1017,9 hPa 0,0 l/m 0,0 km/h (0 Bft) S-SW 213 10 min 0,000 mm 533 W/m 10,3 C 24,4 C 0,0 km/h (0 Bft) 100 %
14.05.2022 17:40 24,5 C 24,4 C 24,6 C 40 % 1017,8 hPa 0,0 l/m 0,8 km/h (0 Bft) S-SW 200 10 min 0,000 mm 475 W/m 10,0 C 24,5 C 6,4 km/h (2 Bft) 100 %
14.05.2022 17:50 24,2 C 24,1 C 24,5 C 41 % 1017,7 hPa 0,0 l/m 0,3 km/h (0 Bft) S-SW 199 10 min 0,000 mm 450 W/m 10,1 C 24,2 C 4,8 km/h (1 Bft) 99 %
14.05.2022 18:00 24,5 C 24,2 C 24,5 C 42 % 1017,8 hPa 0,0 l/m 0,0 km/h (0 Bft) W-SW 239 10 min 0,330 mm 408 W/m 10,7 C 24,5 C 0,0 km/h (0 Bft) 99 %
14.05.2022 18:10 24,3 C 24,2 C 24,5 C 42 % 1017,8 hPa 0,0 l/m 0,5 km/h (0 Bft) SW 223 10 min 0,000 mm 403 W/m 10,6 C 24,3 C 9,7 km/h (2 Bft) 99 %
14.05.2022 18:20 23,9 C 23,9 C 24,3 C 42 % 1017,9 hPa 0,0 l/m 0,3 km/h (0 Bft) S-SW 209 10 min 0,000 mm 316 W/m 10,2 C 23,9 C 6,4 km/h (2 Bft) 100 %
14.05.2022 18:30 23,7 C 23,7 C 23,9 C 44 % 1017,8 hPa 0,0 l/m 0,0 km/h (0 Bft) S-SW 209 10 min 0,000 mm 264 W/m 10,7 C 23,7 C 1,6 km/h (1 Bft) 99 %
14.05.2022 18:40 23,8 C 23,6 C 23,8 C 45 % 1017,7 hPa 0,0 l/m 0,1 km/h (0 Bft) W-SW 239 10 min 0,000 mm 271 W/m 11,1 C 23,8 C 4,8 km/h (1 Bft) 99 %
14.05.2022 18:50 23,9 C 23,8 C 23,9 C 47 % 1017,7 hPa 0,0 l/m 0,0 km/h (0 Bft) W-NW 283 10 min 0,000 mm 274 W/m 11,9 C 23,9 C 4,8 km/h (1 Bft) 100 %
14.05.2022 19:00 24,1 C 23,9 C 24,1 C 43 % 1017,5 hPa 0,0 l/m 0,0 km/h (0 Bft) W 277 10 min 0,203 mm 251 W/m 10,7 C 24,1 C 1,6 km/h (1 Bft) 99 %
14.05.2022 19:10 23,9 C 23,9 C 24,1 C 44 % 1017,6 hPa 0,0 l/m 2,1 km/h (1 Bft) W-SW 255 0 min 0,000 mm 63 W/m 10,9 C 23,9 C 6,4 km/h (2 Bft) 100 %
14.05.2022 19:20 23,3 C 23,3 C 23,9 C 46 % 1017,5 hPa 0,0 l/m 1,9 km/h (1 Bft) W-SW 255 0 min 0,000 mm 67 W/m 11,0 C 23,3 C 6,4 km/h (2 Bft) 100 %
14.05.2022 19:30 22,8 C 22,8 C 23,3 C 46 % 1017,5 hPa 0,0 l/m 2,0 km/h (1 Bft) W-SW 255 0 min 0,000 mm 56 W/m 10,6 C 22,8 C 4,8 km/h (1 Bft) 99 %
14.05.2022 19:40 22,4 C 22,4 C 22,8 C 46 % 1017,6 hPa 0,0 l/m 0,2 km/h (0 Bft) W-SW 257 0 min 0,000 mm 56 W/m 10,2 C 22,4 C 4,8 km/h (1 Bft) 99 %
14.05.2022 19:50 22,0 C 22,0 C 22,4 C 49 % 1017,6 hPa 0,0 l/m 0,0 km/h (0 Bft) W-SW 257 0 min 0,000 mm 49 W/m 10,8 C 22,0 C 0,0 km/h (0 Bft) 100 %
14.05.2022 20:00 21,7 C 21,7 C 22,0 C 52 % 1017,7 hPa 0,0 l/m 0,0 km/h (0 Bft) W-SW 257 0 min 0,076 mm 39 W/m 11,4 C 21,7 C 1,6 km/h (1 Bft) 99 %
14.05.2022 20:10 21,2 C 21,2 C 21,7 C 54 % 1017,7 hPa 0,0 l/m 0,1 km/h (0 Bft) W-SW 257 0 min 0,000 mm 30 W/m 11,5 C 21,2 C 3,2 km/h (1 Bft) 100 %
14.05.2022 20:20 20,6 C 20,6 C 21,2 C 55 % 1017,9 hPa 0,0 l/m 0,0 km/h (0 Bft) W-SW 257 0 min 0,000 mm 25 W/m 11,2 C 20,6 C 0,0 km/h (0 Bft) 100 %
14.05.2022 20:30 20,0 C 20,0 C 20,6 C 56 % 1017,7 hPa 0,0 l/m 0,0 km/h (0 Bft) W-SW 257 0 min 0,000 mm 19 W/m 11,0 C 20,0 C 0,0 km/h (0 Bft) 99 %
14.05.2022 20:40 19,6 C 19,6 C 20,0 C 57 % 1017,8 hPa 0,0 l/m 0,0 km/h (0 Bft) W-SW 257 0 min 0,000 mm 14 W/m 10,8 C 19,6 C 0,0 km/h (0 Bft) 99 %
14.05.2022 20:50 19,1 C 19,1 C 19,6 C 58 % 1017,8 hPa 0,0 l/m 0,0 km/h (0 Bft) W-SW 257 0 min 0,000 mm 7 W/m 10,6 C 19,1 C 0,0 km/h (0 Bft) 99 %
14.05.2022 21:00 18,7 C 18,7 C 19,1 C 57 % 1017,9 hPa 0,0 l/m 0,0 km/h (0 Bft) W-SW 257 0 min 0,026 mm 5 W/m 10,0 C 18,7 C 0,0 km/h (0 Bft) 99 %
14.05.2022 21:10 18,3 C 18,3 C 18,7 C 57 % 1017,9 hPa 0,0 l/m 0,0 km/h (0 Bft) N 0 0 min 0,000 mm 5 W/m 9,6 C 18,3 C 0,0 km/h (0 Bft) 98 %
14.05.2022 21:20 17,9 C 17,9 C 18,3 C 60 % 1018,0 hPa 0,0 l/m 0,0 km/h (0 Bft) N 0 0 min 0,000 mm 0 W/m 10,0 C 17,9 C 0,0 km/h (0 Bft) 97 %
14.05.2022 21:30 17,4 C 17,4 C 17,9 C 62 % 1018,1 hPa 0,0 l/m 0,0 km/h (0 Bft) N 0 0 min 0,000 mm 0 W/m 10,0 C 17,4 C 0,0 km/h (0 Bft) 97 %
14.05.2022 21:40 16,9 C 16,9 C 17,4 C 61 % 1018,3 hPa 0,0 l/m 0,0 km/h (0 Bft) N 0 0 min 0,000 mm 0 W/m 9,3 C 16,9 C 0,0 km/h (0 Bft) 98 %
14.05.2022 21:50 16,6 C 16,6 C 16,9 C 63 % 1018,2 hPa 0,0 l/m 0,0 km/h (0 Bft) N 0 0 min 0,000 mm 0 W/m 9,5 C 16,6 C 0,0 km/h (0 Bft) 98 %
14.05.2022 22:00 16,3 C 16,3 C 16,6 C 65 % 1018,3 hPa 0,0 l/m 0,0 km/h (0 Bft) N 0 0 min 0,000 mm 0 W/m 9,7 C 16,3 C 0,0 km/h (0 Bft) 89 %
14.05.2022 22:10 15,9 C 15,9 C 16,3 C 67 % 1018,3 hPa 0,0 l/m 0,0 km/h (0 Bft) N 0 0 min 0,000 mm 0 W/m 9,8 C 15,9 C 0,0 km/h (0 Bft) 96 %
14.05.2022 22:20 15,5 C 15,5 C 15,8 C 69 % 1018,4 hPa 0,0 l/m 0,0 km/h (0 Bft) N 0 0 min 0,000 mm 0 W/m 9,8 C 15,5 C 0,0 km/h (0 Bft) 96 %
14.05.2022 22:30 15,1 C 15,1 C 15,4 C 69 % 1018,4 hPa 0,0 l/m 0,0 km/h (0 Bft) N 0 0 min 0,000 mm 0 W/m 9,5 C 15,1 C 0,0 km/h (0 Bft) 97 %
14.05.2022 22:40 14,8 C 14,7 C 15,1 C 71 % 1018,5 hPa 0,0 l/m 0,0 km/h (0 Bft) N 0 0 min 0,000 mm 0 W/m 9,6 C 14,8 C 0,0 km/h (0 Bft) 98 %
14.05.2022 22:50 14,4 C 14,4 C 14,8 C 73 % 1018,6 hPa 0,0 l/m 0,0 km/h (0 Bft) N 0 0 min 0,000 mm 0 W/m 9,6 C 14,4 C 0,0 km/h (0 Bft) 98 %
14.05.2022 23:00 14,1 C 14,1 C 14,4 C 74 % 1018,5 hPa 0,0 l/m 0,0 km/h (0 Bft) W-SW 247 0 min 0,025 mm 0 W/m 9,5 C 14,1 C 1,6 km/h (1 Bft) 96 %
14.05.2022 23:10 13,7 C 13,7 C 14,1 C 75 % 1018,6 hPa 0,0 l/m 0,0 km/h (0 Bft) N 0 0 min 0,000 mm 0 W/m 9,3 C 13,7 C 0,0 km/h (0 Bft) 98 %
14.05.2022 23:20 13,5 C 13,5 C 13,7 C 76 % 1018,6 hPa 0,0 l/m 0,0 km/h (0 Bft) N 0 0 min 0,000 mm 0 W/m 9,4 C 13,5 C 0,0 km/h (0 Bft) 99 %
14.05.2022 23:30 13,3 C 13,3 C 13,5 C 77 % 1018,6 hPa 0,0 l/m 0,0 km/h (0 Bft) N 0 0 min 0,000 mm 0 W/m 9,4 C 13,3 C 0,0 km/h (0 Bft) 100 %
14.05.2022 23:40 13,1 C 13,1 C 13,3 C 78 % 1018,5 hPa 0,0 l/m 0,0 km/h (0 Bft) N 0 0 min 0,000 mm 0 W/m 9,4 C 13,1 C 0,0 km/h (0 Bft) 99 %
14.05.2022 23:50 12,8 C 12,8 C 13,1 C 79 % 1018,5 hPa 0,0 l/m 0,0 km/h (0 Bft) N 0 0 min 0,000 mm 0 W/m 9,2 C 12,8 C 0,0 km/h (0 Bft) 100 %
_ Min-Zeit 05:40 05:40 05:50 15:50 19:00 - 00:00 - - - - - 05:40 05:40 00:00 06:20
Minimum _ 6,3 C 6,3 C 6,3 C 38 % 1017,5 hPa - 0,0 km/h (0 Bft) - - - - - 4,8 C 6,3 C 0,0 km/h (0 Bft) 86 %
_ Max-Zeit 17:20 17:40 17:20 06:20 09:30 00:00 14:50 - - 12:00 14:00 13:00 14:20 17:20 15:00 00:00
Maximum _ 24,6 C 24,4 C 24,6 C 91 % 1020,7 hPa 0,0 l/m 4,0 km/h
NW (1 Bft)
- - 20 min 0,533 mm 905 W/m 12,6 C 24,5 C 17,7 km/h
N-NW (3 Bft)
100 %
Durchschnitt _ 15,8 C 15,7 C 16,0 C 66 % 1019,3 hPa #0,0 l/m 0,3 km/h (0 Bft) W-SW - #10:40 h #4,521 mm 481 W/m 8,8 C 15,8 C 3,2 km/h (1 Bft) 99 %
PRIVATE WETTERSTATION BILLIGHEIM-ALLFELD - www.neckar-odenwald-wetter.de - Holger Sonntag